Time;durP1;ratioP1;P1;durP2;ratioP2;P2;SDS_P1;SDS_P2;PMS_P1;PMS_P2;Temp;Humidity;BMP_temperature;BMP_pressure;BME280_temperature;BME280_humidity;BME280_pressure;Samples;Min_cycle;Max_cycle;Signal;HPM_P1;HPM_P2
2023/07/07 00:00:52;;;;;;;5.95;4.93;;;;;;;21.67;46.34;93727.25;4988763;28;20030;-90
2023/07/07 00:03:17;;;;;;;5.88;4.40;;;;;;;21.67;46.29;93723.75;4975706;28;20505;-89
2023/07/07 00:05:42;;;;;;;5.78;4.78;;;;;;;21.66;46.44;93720.28;4992256;28;20042;-93
2023/07/07 00:08:08;;;;;;;6.20;4.63;;;;;;;21.66;46.35;93720.28;4992255;28;20066;-90
2023/07/07 00:10:33;;;;;;;5.55;4.50;;;;;;;21.66;46.29;93719.53;4993976;28;20408;-90
2023/07/07 00:12:59;;;;;;;5.05;4.15;;;;;;;21.67;46.33;93721.75;4973467;28;20042;-90
2023/07/07 00:15:24;;;;;;;5.55;4.35;;;;;;;21.65;46.20;93718.06;5008611;28;20045;-90
2023/07/07 00:17:51;;;;;;;5.50;4.40;;;;;;;21.66;46.06;93714.03;4976825;28;20375;-90
2023/07/07 00:20:16;;;;;;;6.10;4.57;;;;;;;21.68;46.25;93728.00;5022698;28;20038;-92
2023/07/07 00:22:42;;;;;;;6.63;4.13;;;;;;;21.66;46.09;93714.75;5008990;28;20041;-93
2023/07/07 00:25:07;;;;;;;5.22;4.40;;;;;;;21.66;46.35;93725.78;4986048;28;20037;-91
2023/07/07 00:27:33;;;;;;;5.90;3.65;;;;;;;21.65;46.44;93720.81;4991110;28;20153;-90
2023/07/07 00:29:58;;;;;;;5.45;4.72;;;;;;;21.66;46.31;93723.03;4975373;28;20041;-89
2023/07/07 00:32:24;;;;;;;6.40;4.47;;;;;;;21.64;46.36;93728.31;4991938;28;20059;-91
2023/07/07 00:34:49;;;;;;;6.15;4.40;;;;;;;21.65;46.42;93729.06;4980211;28;20386;-90
2023/07/07 00:37:16;;;;;;;6.57;4.30;;;;;;;21.65;46.50;93723.56;5016329;28;20065;-90
2023/07/07 00:39:41;;;;;;;4.65;4.05;;;;;;;21.64;46.47;93725.56;4973133;28;20038;-92
2023/07/07 00:42:08;;;;;;;5.40;4.25;;;;;;;21.62;46.59;93730.84;4955573;28;20371;-89
2023/07/07 00:45:08;;;;;;;5.70;4.28;;;;;;;21.64;46.29;93731.09;4976631;28;20044;-90
2023/07/07 00:47:33;;;;;;;5.30;3.78;;;;;;;21.64;46.20;93733.09;4991851;28;20235;-90
2023/07/07 00:50:00;;;;;;;4.70;4.20;;;;;;;21.63;46.24;93734.34;4990823;28;20045;-91
2023/07/07 00:52:25;;;;;;;5.47;4.13;;;;;;;21.62;46.40;93738.38;4975346;28;20519;-90
2023/07/07 00:54:50;;;;;;;5.32;3.95;;;;;;;21.62;46.41;93733.59;4992585;28;20337;-90
2023/07/07 00:57:16;;;;;;;5.60;4.40;;;;;;;21.61;46.34;93734.88;5005782;28;20049;-90
2023/07/07 00:59:42;;;;;;;7.07;4.70;;;;;;;21.61;46.48;93740.38;4992673;28;20042;-90
2023/07/07 01:02:12;;;;;;;4.40;3.90;;;;;;;21.63;46.30;93731.59;4981599;28;20390;-89
2023/07/07 01:04:38;;;;;;;4.53;3.72;;;;;;;21.64;46.28;93735.84;4991517;28;20034;-90
2023/07/07 01:07:06;;;;;;;6.20;4.40;;;;;;;21.61;46.41;93739.63;4975286;28;20112;-90
2023/07/07 01:09:31;;;;;;;5.50;4.22;;;;;;;21.62;46.45;93738.38;4975993;28;20034;-89
2023/07/07 01:11:58;;;;;;;5.15;4.43;;;;;;;21.61;46.43;93737.63;4990183;28;20053;-89
2023/07/07 01:14:25;;;;;;;4.57;3.78;;;;;;;21.62;46.35;93738.38;4982897;28;20045;-89
2023/07/07 01:16:57;;;;;;;5.45;3.83;;;;;;;21.62;46.35;93735.63;4992007;28;20088;-91
2023/07/07 01:19:50;;;;;;;5.90;4.35;;;;;;;21.61;46.30;93743.13;4990093;28;20459;-90
2023/07/07 01:22:31;;;;;;;5.72;4.50;;;;;;;21.61;46.34;93745.88;4993593;28;20030;-91
2023/07/07 01:25:19;;;;;;;4.95;3.95;;;;;;;21.61;46.46;93745.13;4988839;28;20038;-90
2023/07/07 01:27:56;;;;;;;4.78;3.83;;;;;;;21.59;46.51;93753.16;4972545;28;20441;-91
2023/07/07 01:30:37;;;;;;;5.28;3.70;;;;;;;21.60;46.38;93743.66;5006625;28;20121;-90
2023/07/07 01:33:07;;;;;;;6.10;4.10;;;;;;;21.60;46.44;93749.91;4990172;28;20097;-89
2023/07/07 01:35:32;;;;;;;6.03;3.88;;;;;;;21.59;46.32;93747.66;4955984;28;20093;-91
2023/07/07 01:37:59;;;;;;;5.70;4.40;;;;;;;21.59;46.25;93753.91;4968896;28;20548;-91
2023/07/07 01:40:32;;;;;;;5.07;3.65;;;;;;;21.59;46.36;93748.41;4970191;28;20114;-92
2023/07/07 01:43:00;;;;;;;4.85;3.65;;;;;;;21.60;46.09;93755.41;4967601;28;20057;-89
2023/07/07 01:45:30;;;;;;;5.90;4.20;;;;;;;21.59;46.35;93753.91;4991270;28;20571;-89
2023/07/07 01:48:00;;;;;;;4.55;3.78;;;;;;;21.58;46.33;93755.19;5006220;28;20057;-91
2023/07/07 01:50:26;;;;;;;5.53;4.03;;;;;;;21.58;46.42;93754.44;4999103;28;20044;-91
2023/07/07 01:52:53;;;;;;;7.20;3.40;;;;;;;21.59;46.35;93750.41;4976267;28;20050;-91
2023/07/07 01:55:21;;;;;;;4.63;4.10;;;;;;;21.55;46.54;93750.72;4972681;28;20433;-90
2023/07/07 01:57:50;;;;;;;4.70;3.35;;;;;;;21.57;46.48;93747.44;4990531;28;20042;-91
2023/07/07 02:00:15;;;;;;;5.35;3.90;;;;;;;21.54;46.48;93744.47;4970078;28;20042;-91
2023/07/07 02:02:41;;;;;;;4.90;3.75;;;;;;;21.58;46.32;93746.94;4989167;28;20120;-90
2023/07/07 02:05:07;;;;;;;5.13;4.15;;;;;;;21.56;46.42;93749.44;4990243;28;20050;-91
2023/07/07 02:07:32;;;;;;;5.18;4.22;;;;;;;21.56;46.25;93746.69;4990975;28;20064;-91
2023/07/07 02:09:59;;;;;;;4.05;3.63;;;;;;;21.56;46.11;93754.97;4973186;28;20509;-89
2023/07/07 02:12:24;;;;;;;4.72;3.85;;;;;;;21.57;46.36;93761.19;4974648;28;20096;-90
2023/07/07 02:14:50;;;;;;;4.50;3.60;;;;;;;21.56;46.38;93757.72;4973928;28;20026;-90
2023/07/07 02:17:15;;;;;;;4.03;3.35;;;;;;;21.55;46.44;93761.72;4989991;28;20042;-89
2023/07/07 02:19:41;;;;;;;4.85;3.90;;;;;;;21.55;46.25;93756.22;4989154;28;20107;-90
2023/07/07 02:22:07;;;;;;;3.67;3.17;;;;;;;21.54;46.58;93755.47;4956275;28;20053;-90
2023/07/07 02:24:32;;;;;;;3.95;3.40;;;;;;;21.55;46.32;93767.97;4956999;28;20568;-91
2023/07/07 02:26:58;;;;;;;4.80;3.55;;;;;;;21.57;46.17;93756.44;4968232;28;20058;-89
2023/07/07 02:29:23;;;;;;;3.70;3.20;;;;;;;21.55;46.50;93764.47;4969127;28;20054;-91
2023/07/07 02:31:49;;;;;;;4.72;3.25;;;;;;;21.57;46.52;93769.44;4957087;28;20034;-90
2023/07/07 02:34:14;;;;;;;4.18;3.45;;;;;;;21.55;46.30;93770.72;4954437;28;20519;-92
2023/07/07 02:36:40;;;;;;;5.03;3.65;;;;;;;21.54;46.48;93769.22;4956158;28;20053;-89
2023/07/07 02:39:05;;;;;;;3.97;3.15;;;;;;;21.55;46.20;93767.97;4953315;28;20045;-89
2023/07/07 02:41:30;;;;;;;5.10;3.67;;;;;;;21.57;46.36;93769.44;4971606;28;20046;-89
2023/07/07 02:43:56;;;;;;;4.32;3.67;;;;;;;21.54;46.34;93771.97;4956450;28;20575;-90
2023/07/07 02:46:21;;;;;;;3.72;3.33;;;;;;;21.53;46.34;93772.50;4972545;28;20053;-90
2023/07/07 02:48:47;;;;;;;4.47;3.40;;;;;;;21.53;46.35;93770.50;4971797;28;20057;-90
2023/07/07 02:51:12;;;;;;;3.20;2.90;;;;;;;21.52;46.33;93774.50;4960879;28;20430;-91
2023/07/07 02:53:37;;;;;;;5.50;3.50;;;;;;;21.53;46.17;93783.50;4992446;28;20104;-91
2023/07/07 02:56:03;;;;;;;4.40;3.60;;;;;;;21.53;46.33;93780.75;4976225;28;20046;-89
2023/07/07 02:58:29;;;;;;;3.88;3.15;;;;;;;21.54;46.28;93776.75;4978517;28;20111;-89
2023/07/07 03:01:09;;;;;;;4.07;3.15;;;;;;;21.51;46.34;93775.03;4975622;28;20048;-90
2023/07/07 03:03:36;;;;;;;4.60;3.50;;;;;;;21.51;46.38;93777.78;4994241;28;20042;-92
2023/07/07 03:06:03;;;;;;;3.95;3.17;;;;;;;21.52;46.22;93773.75;4994224;28;20044;-89
2023/07/07 03:08:28;;;;;;;4.45;3.65;;;;;;;21.53;46.33;93791.75;4977922;28;20042;-90
2023/07/07 03:10:54;;;;;;;4.63;3.10;;;;;;;21.51;46.33;93803.28;4978358;28;20037;-92
2023/07/07 03:13:20;;;;;;;3.97;3.22;;;;;;;21.50;46.20;93799.03;4992639;28;20041;-89
2023/07/07 03:15:45;;;;;;;4.35;3.20;;;;;;;21.49;46.35;93800.31;4978050;28;20030;-90
2023/07/07 03:18:13;;;;;;;4.47;3.47;;;;;;;21.50;46.18;93792.81;4976184;28;20040;-91
2023/07/07 03:20:47;;;;;;;4.55;3.40;;;;;;;21.51;46.16;93786.78;4994283;28;20050;-90
2023/07/07 03:23:21;;;;;;;4.50;3.20;;;;;;;21.52;46.29;93788.25;4994391;28;20715;-90
2023/07/07 03:25:46;;;;;;;3.90;3.22;;;;;;;21.52;46.10;93795.78;4989591;28;20474;-90
2023/07/07 03:28:12;;;;;;;4.07;3.15;;;;;;;21.50;46.39;93804.53;4976911;28;20041;-89
2023/07/07 03:30:37;;;;;;;6.00;3.58;;;;;;;21.51;46.20;93802.53;4977225;28;20050;-90
2023/07/07 03:33:02;;;;;;;4.45;3.55;;;;;;;21.52;46.11;93802.03;4991579;28;20041;-89
2023/07/07 03:35:28;;;;;;;4.40;3.17;;;;;;;21.51;46.32;93805.28;4976911;28;20042;-91
2023/07/07 03:37:53;;;;;;;4.18;3.40;;;;;;;21.51;46.48;93811.53;4992967;28;20030;-90
2023/07/07 03:40:19;;;;;;;4.32;3.00;;;;;;;21.49;46.22;93811.31;4963108;28;20049;-90
2023/07/07 03:42:44;;;;;;;4.20;3.15;;;;;;;21.53;46.00;93808.25;5010119;28;20041;-90
2023/07/07 03:45:10;;;;;;;4.03;3.08;;;;;;;21.50;46.12;93821.06;4992609;28;20038;-89
2023/07/07 03:47:35;;;;;;;3.70;3.17;;;;;;;21.49;46.30;93810.56;4992273;28;20413;-91
2023/07/07 03:50:00;;;;;;;3.88;2.80;;;;;;;21.50;46.16;93815.53;4976536;28;20099;-90
2023/07/07 03:52:26;;;;;;;4.38;3.40;;;;;;;21.50;45.58;93817.56;4977591;28;20069;-91
2023/07/07 03:54:51;;;;;;;4.68;3.13;;;;;;;21.50;46.15;93821.06;4992624;28;20045;-92
2023/07/07 03:57:17;;;;;;;3.92;3.00;;;;;;;21.53;46.31;93811.75;4976503;28;20528;-91
2023/07/07 03:59:45;;;;;;;4.30;3.10;;;;;;;21.53;46.03;93817.25;4977223;28;20177;-92
2023/07/07 04:02:12;;;;;;;4.22;3.10;;;;;;;21.51;46.28;93819.78;4974902;28;20386;-89
2023/07/07 04:04:37;;;;;;;3.83;2.90;;;;;;;21.52;46.18;93815.03;4976448;28;20038;-91
2023/07/07 04:07:04;;;;;;;3.63;2.83;;;;;;;21.52;45.92;93812.28;4976080;28;20534;-89
2023/07/07 04:09:29;;;;;;;6.13;3.50;;;;;;;21.57;46.32;93813.47;4991771;28;20103;-90
2023/07/07 04:11:55;;;;;;;4.00;3.05;;;;;;;21.57;46.23;93822.47;5009436;28;20374;-90
2023/07/07 04:14:20;;;;;;;4.00;2.85;;;;;;;21.59;45.85;93822.69;4991896;28;20045;-89
2023/07/07 04:16:46;;;;;;;3.17;2.45;;;;;;;21.58;46.38;93823.22;4992108;28;20038;-90
2023/07/07 04:19:11;;;;;;;3.35;2.90;;;;;;;21.61;45.99;93824.91;4976915;28;20049;-90
2023/07/07 04:21:38;;;;;;;4.05;2.72;;;;;;;21.61;45.96;93831.16;4977415;28;20052;-91
2023/07/07 04:24:04;;;;;;;3.42;2.90;;;;;;;21.61;45.81;93830.41;4974906;28;20049;-91
2023/07/07 04:26:30;;;;;;;3.60;2.53;;;;;;;21.61;46.00;93842.16;5007854;28;20112;-90
2023/07/07 04:28:57;;;;;;;3.42;2.60;;;;;;;21.63;45.99;93828.63;4993204;28;20046;-89
2023/07/07 04:31:25;;;;;;;3.17;2.40;;;;;;;21.63;46.02;93836.16;4991038;28;20084;-89
2023/07/07 04:33:51;;;;;;;4.07;2.88;;;;;;;21.64;45.78;93838.38;4993221;28;20420;-89
2023/07/07 04:36:17;;;;;;;4.50;2.42;;;;;;;21.64;45.88;93841.13;4981128;28;20042;-90
2023/07/07 04:38:42;;;;;;;5.28;2.75;;;;;;;21.66;45.88;93844.09;4970053;28;20503;-92
2023/07/07 04:41:13;;;;;;;3.55;2.50;;;;;;;21.66;46.02;93843.34;4985880;28;20564;-89
2023/07/07 04:43:40;;;;;;;4.03;2.50;;;;;;;21.69;45.88;93845.06;5010702;28;20045;-90
2023/07/07 04:46:07;;;;;;;4.10;2.67;;;;;;;21.70;46.11;93841.78;4961803;28;20043;-90
2023/07/07 04:48:32;;;;;;;2.88;2.58;;;;;;;21.69;45.92;93842.28;4973404;28;20069;-90
2023/07/07 04:51:00;;;;;;;3.28;2.42;;;;;;;21.71;46.04;93848.03;4987955;28;20038;-92
2023/07/07 04:53:28;;;;;;;3.70;2.15;;;;;;;21.71;46.00;93848.78;4974713;28;20030;-91
2023/07/07 04:55:54;;;;;;;2.80;2.40;;;;;;;21.73;45.83;93851.75;5008783;28;20504;-90
2023/07/07 04:58:20;;;;;;;3.10;2.22;;;;;;;21.75;46.14;93851.22;4992678;28;20038;-92
2023/07/07 05:00:46;;;;;;;2.70;2.47;;;;;;;21.75;45.91;93843.72;4990891;28;20037;-89
2023/07/07 05:03:11;;;;;;;3.17;2.38;;;;;;;21.76;46.07;93849.97;5007374;28;20038;-89
2023/07/07 05:05:37;;;;;;;2.40;2.05;;;;;;;21.77;46.03;93852.19;4992384;28;20084;-89
2023/07/07 05:08:02;;;;;;;2.25;2.00;;;;;;;21.77;45.94;93851.44;4974302;28;20080;-90
2023/07/07 05:10:28;;;;;;;2.95;2.10;;;;;;;21.80;45.93;93853.91;4975784;28;20072;-92
2023/07/07 05:12:53;;;;;;;2.67;2.00;;;;;;;21.80;46.01;93851.16;4975521;28;20034;-92
2023/07/07 05:15:18;;;;;;;2.78;2.00;;;;;;;21.82;45.87;93856.88;4972643;28;20073;-89
2023/07/07 05:17:44;;;;;;;2.35;1.92;;;;;;;21.83;45.94;93863.88;4991524;28;20041;-92
2023/07/07 05:20:10;;;;;;;2.78;1.90;;;;;;;21.84;45.85;93856.34;4991106;28;20050;-89
2023/07/07 05:22:36;;;;;;;2.53;2.10;;;;;;;21.88;46.09;93856.78;4991195;28;20048;-91
2023/07/07 05:25:01;;;;;;;3.08;2.03;;;;;;;21.88;46.05;93856.78;4991403;28;20054;-90
2023/07/07 05:27:27;;;;;;;2.17;1.73;;;;;;;21.89;45.82;93858.25;4990093;28;20049;-92
2023/07/07 05:29:52;;;;;;;2.65;2.00;;;;;;;21.88;46.10;93868.53;4958421;28;20567;-90
2023/07/07 05:32:17;;;;;;;1.73;1.48;;;;;;;21.89;45.89;93863.78;4938122;28;20106;-93
2023/07/07 05:34:43;;;;;;;2.15;1.50;;;;;;;21.94;45.86;93868.47;4954669;28;20568;-92
2023/07/07 05:37:08;;;;;;;3.00;1.75;;;;;;;21.94;46.05;93873.97;4963252;28;20045;-90
2023/07/07 05:39:34;;;;;;;2.58;1.63;;;;;;;21.95;45.86;93874.72;4957473;28;20049;-89
2023/07/07 05:41:59;;;;;;;1.80;1.52;;;;;;;21.98;45.78;93874.41;4938109;28;20081;-91
2023/07/07 05:44:25;;;;;;;3.15;1.52;;;;;;;21.96;45.66;93885.19;4953989;28;20042;-89
2023/07/07 05:46:50;;;;;;;2.45;1.50;;;;;;;21.96;45.33;93882.44;4968796;28;20685;-90
2023/07/07 05:49:15;;;;;;;2.20;1.75;;;;;;;21.99;45.82;93884.16;4985121;28;20445;-90
2023/07/07 05:51:41;;;;;;;6.05;1.42;;;;;;;22.01;45.75;93891.91;4962506;28;20540;-90
2023/07/07 05:54:08;;;;;;;1.75;1.45;;;;;;;22.03;45.89;93889.38;4936402;28;20529;-90
2023/07/07 05:56:34;;;;;;;2.30;1.40;;;;;;;22.02;45.43;93896.16;4955193;28;20042;-90
2023/07/07 05:58:59;;;;;;;1.58;1.30;;;;;;;22.02;45.69;93887.91;4966148;28;20418;-91
2023/07/07 06:01:25;;;;;;;2.28;1.52;;;;;;;22.04;45.89;93894.38;4985950;28;20034;-91
2023/07/07 06:03:50;;;;;;;3.08;1.42;;;;;;;22.05;45.58;93889.63;4993857;28;20493;-89
2023/07/07 06:06:16;;;;;;;1.70;1.27;;;;;;;22.06;45.72;93891.09;4974320;28;20045;-90
2023/07/07 06:08:41;;;;;;;1.63;1.17;;;;;;;22.09;45.61;93887.28;5006731;28;20042;-89
2023/07/07 06:11:07;;;;;;;2.35;1.58;;;;;;;22.11;45.38;93888.25;5007147;28;20129;-93
2023/07/07 06:13:34;;;;;;;2.08;1.08;;;;;;;22.09;45.57;93884.53;4992064;28;20038;-91
2023/07/07 06:16:00;;;;;;;1.48;1.25;;;;;;;22.13;45.59;93893.22;4985189;28;20034;-93
2023/07/07 06:18:26;;;;;;;2.97;1.15;;;;;;;22.12;45.64;93892.47;4991361;28;20049;-93
2023/07/07 06:20:54;;;;;;;5.72;1.30;;;;;;;22.13;45.69;93896.72;4991656;28;20050;-89
2023/07/07 06:23:20;;;;;;;1.48;1.13;;;;;;;22.14;45.65;93898.22;4989442;28;20583;-90
2023/07/07 06:25:47;;;;;;;1.77;1.35;;;;;;;22.15;45.71;93909.97;4975421;28;20042;-91
2023/07/07 06:28:13;;;;;;;1.60;1.00;;;;;;;22.14;45.61;93908.47;4991397;28;20085;-93
2023/07/07 06:30:39;;;;;;;1.92;1.35;;;;;;;22.11;45.67;93912.28;4973749;28;20046;-90
2023/07/07 06:33:04;;;;;;;16.75;3.40;;;;;;;22.14;45.78;93919.50;4990316;28;20069;-91
2023/07/07 06:35:30;;;;;;;7.68;2.17;;;;;;;22.14;46.09;93917.50;5006720;28;20476;-89
2023/07/07 06:37:55;;;;;;;3.58;1.50;;;;;;;22.16;45.95;93919.72;4973397;28;20451;-90
2023/07/07 06:40:21;;;;;;;4.78;2.38;;;;;;;22.16;45.91;93922.47;4974425;28;20042;-94
2023/07/07 06:42:49;;;;;;;8.10;2.50;;;;;;;22.20;45.85;93914.66;4980328;28;20033;-91
2023/07/07 06:45:15;;;;;;;10.73;3.70;;;;;;;22.27;47.19;93922.31;5005586;28;20520;-91
2023/07/07 06:47:40;;;;;;;23.00;4.65;;;;;;;22.21;46.17;93916.88;4991170;28;20038;-92
2023/07/07 06:50:06;;;;;;;11.38;3.97;;;;;;;22.27;45.92;93916.06;5007060;28;20472;-92
2023/07/07 06:52:32;;;;;;;15.63;5.20;;;;;;;22.23;46.07;93922.63;4989341;28;20052;-93
2023/07/07 06:54:57;;;;;;;11.05;5.57;;;;;;;22.27;45.93;93924.34;4974430;28;20038;-91
2023/07/07 06:57:23;;;;;;;20.95;8.85;;;;;;;22.26;45.76;93933.88;4990852;28;20042;-91
2023/07/07 06:59:48;;;;;;;17.02;9.85;;;;;;;22.29;45.63;93930.81;4990293;28;20060;-89
2023/07/07 07:02:13;;;;;;;28.85;15.25;;;;;;;22.29;45.85;93924.56;5005610;28;20050;-90
2023/07/07 07:04:39;;;;;;;26.48;12.95;;;;;;;22.35;45.82;93925.19;4974085;28;20042;-89
2023/07/07 07:07:05;;;;;;;29.42;17.77;;;;;;;22.32;45.77;93935.25;4989506;28;20064;-91
2023/07/07 07:09:31;;;;;;;27.27;15.93;;;;;;;22.33;45.83;93925.72;4991051;28;20497;-88
2023/07/07 07:11:56;;;;;;;33.55;19.65;;;;;;;22.34;45.50;93927.22;5006665;28;20560;-91
2023/07/07 07:14:22;;;;;;;34.45;19.80;;;;;;;22.36;45.76;93926.69;4961304;28;20057;-92
2023/07/07 07:16:47;;;;;;;39.20;19.20;;;;;;;22.34;45.56;93927.22;4979261;28;20037;-90
2023/07/07 07:19:13;;;;;;;34.80;17.27;;;;;;;22.36;45.88;93934.94;4990584;28;20038;-92
2023/07/07 07:21:38;;;;;;;23.75;16.38;;;;;;;22.38;45.74;93933.16;4992458;28;20064;-92
2023/07/07 07:24:04;;;;;;;30.38;17.40;;;;;;;22.38;45.61;93927.66;4975052;28;20501;-92
2023/07/07 07:26:30;;;;;;;37.72;15.95;;;;;;;22.37;45.76;93931.66;4992486;28;20038;-91
2023/07/07 07:28:55;;;;;;;21.98;13.95;;;;;;;22.38;45.75;93933.16;4975660;28;20084;-93
2023/07/07 07:31:20;;;;;;;24.50;14.60;;;;;;;22.38;46.07;93938.66;4975543;28;20046;-92
2023/07/07 07:33:51;;;;;;;24.08;13.13;;;;;;;22.40;45.84;93929.88;4993877;28;20489;-93
2023/07/07 07:36:25;;;;;;;21.77;12.68;;;;;;;22.39;45.86;93934.66;4975456;28;20042;-95
2023/07/07 07:38:51;;;;;;;22.58;13.63;;;;;;;22.41;45.71;93939.63;4980399;28;20038;-91
2023/07/07 07:41:16;;;;;;;23.13;13.15;;;;;;;22.43;45.87;93945.38;5004334;28;20049;-93
2023/07/07 07:43:42;;;;;;;21.17;12.18;;;;;;;22.42;45.85;93943.88;5027776;28;20034;-92
2023/07/07 07:46:07;;;;;;;29.58;12.65;;;;;;;22.44;45.78;93941.34;5020187;28;20038;-93
2023/07/07 07:48:35;;;;;;;39.17;15.23;;;;;;;22.41;45.80;93951.41;5004382;28;20117;-91
2023/07/07 07:51:00;;;;;;;75.63;23.10;;;;;;;22.42;46.03;93944.63;5002854;28;20041;-93
2023/07/07 07:53:26;;;;;;;117.13;31.13;;;;;;;22.42;45.80;93952.88;5001017;28;20030;-94
2023/07/07 07:55:51;;;;;;;126.20;29.73;;;;;;;22.42;47.14;93952.88;4968036;28;20042;-93
2023/07/07 07:58:16;;;;;;;141.02;34.03;;;;;;;22.45;46.38;93953.84;4982998;28;20039;-94
2023/07/07 08:00:42;;;;;;;263.27;59.60;;;;;;;22.46;46.27;93952.59;5001892;28;20056;-92
2023/07/07 08:03:08;;;;;;;209.82;47.42;;;;;;;22.46;45.86;93949.81;4999039;28;20393;-95
2023/07/07 08:05:34;;;;;;;237.68;58.70;;;;;;;22.45;46.17;93954.59;4984029;28;20053;-94
2023/07/07 08:07:59;;;;;;;224.25;53.53;;;;;;;22.44;46.09;93960.63;4985579;28;20026;-91
2023/07/07 08:10:26;;;;;;;276.98;65.68;;;;;;;22.45;46.17;93957.34;4976975;28;20052;-95
2023/07/07 08:12:51;;;;;;;211.95;53.53;;;;;;;22.50;46.13;93956.53;4999518;28;20149;-92
2023/07/07 08:15:17;;;;;;;214.45;55.92;;;;;;;22.48;46.21;93959.06;4988561;28;20042;-91
2023/07/07 08:20:16;;;;;;;213.85;50.90;;;;;;;22.47;46.21;93968.59;5012339;28;20041;-91
2023/07/07 08:22:41;;;;;;;235.45;60.25;;;;;;;22.48;46.30;93969.34;4988370;28;20049;-90
2023/07/07 08:25:08;;;;;;;220.43;55.70;;;;;;;22.47;46.63;93967.84;5009055;28;20034;-90
2023/07/07 08:27:34;;;;;;;240.63;59.38;;;;;;;22.47;46.43;93971.34;5005954;28;20416;-89
2023/07/07 08:29:59;;;;;;;213.27;56.35;;;;;;;22.47;46.19;93970.59;5009033;28;20018;-89
2023/07/07 08:32:24;;;;;;;210.13;54.03;;;;;;;22.51;46.55;93965.53;5001567;28;20508;-93
2023/07/07 08:34:53;;;;;;;188.70;49.47;;;;;;;22.51;46.16;93969.03;5022107;22;20014;-90
2023/07/07 08:37:20;;;;;;;181.07;47.15;;;;;;;22.54;46.36;93964.47;5002988;28;20047;-92
2023/07/07 08:39:45;;;;;;;175.60;48.03;;;;;;;22.54;46.39;93972.72;5023736;28;20116;-90
2023/07/07 08:42:27;;;;;;;174.27;47.03;;;;;;;22.52;46.34;93967.00;5000842;28;20041;-95
2023/07/07 08:45:00;;;;;;;137.40;42.30;;;;;;;22.55;46.69;93969.44;5009186;28;20044;-93
2023/07/07 08:47:50;;;;;;;145.73;46.63;;;;;;;22.54;46.43;93972.72;5030721;28;20341;-90
2023/07/07 08:50:36;;;;;;;143.02;41.58;;;;;;;22.54;46.28;93961.72;5045056;28;20046;-90
2023/07/07 08:53:15;;;;;;;155.30;48.17;;;;;;;22.51;46.35;93966.28;5030645;28;20037;-91
2023/07/07 08:56:18;;;;;;;144.43;44.17;;;;;;;22.50;46.04;93975.81;5072625;28;20056;-94
2023/07/07 08:59:17;;;;;;;130.85;40.70;;;;;;;22.49;46.77;93971.56;5054675;28;20055;-93
2023/07/07 09:02:14;;;;;;;124.30;40.00;;;;;;;22.49;46.46;93971.56;5046046;22;20053;-94
2023/07/07 09:05:13;;;;;;;135.80;40.53;;;;;;;22.49;46.29;93965.31;5059858;22;20090;-91
2023/07/07 09:08:10;;;;;;;123.70;38.22;;;;;;;22.48;46.55;93969.34;5054229;28;20032;-92
2023/07/07 09:10:47;;;;;;;118.93;36.45;;;;;;;22.49;46.36;93968.06;5047336;23;20041;-93
2023/07/07 09:13:28;;;;;;;96.72;31.23;;;;;;;22.47;46.07;93965.84;5024367;23;20042;-92
2023/07/07 09:18:27;;;;;;;97.03;32.20;;;;;;;22.50;45.86;93967.53;5060044;22;20072;-91
2023/07/07 09:20:57;;;;;;;88.13;29.13;;;;;;;22.53;45.46;93960.22;5012836;28;20034;-91
2023/07/07 09:23:26;;;;;;;95.70;29.17;;;;;;;22.49;45.63;93963.31;5001197;23;20036;-94
2023/07/07 09:25:56;;;;;;;71.18;27.15;;;;;;;22.52;46.07;93970.50;5001976;28;20046;-92
2023/07/07 09:28:28;;;;;;;84.63;27.98;;;;;;;22.54;45.74;93973.47;5095512;22;20037;-91
2023/07/07 09:31:12;;;;;;;83.75;27.38;;;;;;;22.50;46.00;93964.78;4985421;28;20044;-92
2023/07/07 09:33:37;;;;;;;79.57;26.25;;;;;;;22.52;46.00;93972.50;5055709;22;20030;-91
2023/07/07 09:36:37;;;;;;;84.43;28.30;;;;;;;22.49;46.33;93970.81;5013626;28;20034;-92
2023/07/07 09:39:29;;;;;;;79.07;26.60;;;;;;;22.49;46.11;93973.59;5010465;28;20393;-91
2023/07/07 09:42:12;;;;;;;74.43;25.83;;;;;;;22.52;45.67;93965.00;5006425;28;20039;-90
2023/07/07 09:45:08;;;;;;;73.78;26.55;;;;;;;22.51;46.00;93982.06;5013668;28;20046;-90
2023/07/07 09:47:50;;;;;;;73.45;25.65;;;;;;;22.47;46.13;93973.34;5028452;23;20069;-91
2023/07/07 09:50:19;;;;;;;71.85;25.40;;;;;;;22.50;46.01;93972.31;5045581;28;20045;-91
2023/07/07 09:53:13;;;;;;;60.10;22.73;;;;;;;22.50;46.01;93984.09;4999380;28;20046;-91
2023/07/07 09:55:41;;;;;;;58.60;22.10;;;;;;;22.56;46.19;93973.69;5025852;28;20041;-91
2023/07/07 09:58:20;;;;;;;52.03;21.17;;;;;;;22.50;46.35;93973.06;5010726;28;20069;-91
2023/07/07 10:01:02;;;;;;;54.97;22.38;;;;;;;22.50;46.24;93975.81;5048110;22;20083;-90
2023/07/07 10:03:43;;;;;;;41.42;15.95;;;;;;;22.51;46.14;93971.03;5041377;22;20049;-91
2023/07/07 10:06:38;;;;;;;60.35;20.92;;;;;;;22.49;46.13;93970.81;5047200;28;20099;-91
2023/07/07 10:09:04;;;;;;;49.92;19.60;;;;;;;22.50;46.30;93970.31;5049561;28;20037;-92
2023/07/07 10:11:46;;;;;;;54.13;19.75;;;;;;;22.49;46.49;93965.31;5034004;28;20044;-92
2023/07/07 10:14:15;;;;;;;48.40;20.98;;;;;;;22.49;46.23;93965.31;5033990;28;20048;-93
2023/07/07 10:16:50;;;;;;;48.83;18.55;;;;;;;22.51;46.16;93963.53;5050388;28;20053;-91
2023/07/07 10:19:16;;;;;;;45.30;18.33;;;;;;;22.50;45.93;93966.81;5043351;28;20071;-91
2023/07/07 10:21:43;;;;;;;48.00;18.55;;;;;;;22.52;46.17;93972.50;5036771;28;20029;-94
2023/07/07 10:24:15;;;;;;;44.30;17.48;;;;;;;22.51;46.25;93969.03;5044407;22;20049;-91
2023/07/07 10:26:45;;;;;;;32.10;15.88;;;;;;;22.51;46.16;93971.03;5057647;23;20049;-91
2023/07/07 10:29:21;;;;;;;;;;;;;;;22.52;46.11;93975.25;5046616;23;20026;-91
2023/07/07 10:31:50;;;;;;;35.75;15.10;;;;;;;22.53;46.10;93974.75;5098763;23;20492;-91
2023/07/07 10:34:35;;;;;;;43.03;16.83;;;;;;;22.51;46.12;93968.28;5049978;28;20103;-91
2023/07/07 10:37:01;;;;;;;33.65;14.52;;;;;;;22.52;46.35;93965.00;5068935;22;20132;-90
2023/07/07 10:39:28;;;;;;;33.38;15.10;;;;;;;22.51;46.23;93965.53;5050149;28;20025;-90
2023/07/07 10:41:53;;;;;;;34.88;14.15;;;;;;;22.48;46.22;93967.31;5027170;28;20034;-91
2023/07/07 10:44:25;;;;;;;37.60;15.50;;;;;;;22.47;46.39;93967.84;5027275;28;20042;-90
2023/07/07 10:46:51;;;;;;;42.45;14.50;;;;;;;22.53;46.25;93977.50;5020615;28;20376;-91
2023/07/07 10:49:17;;;;;;;45.17;21.85;;;;;;;22.55;46.27;93969.44;5026537;28;20052;-91
2023/07/07 10:52:02;;;;;;;40.47;16.45;;;;;;;22.56;46.29;93967.44;5027206;28;20040;-90
2023/07/07 10:54:55;;;;;;;40.15;18.52;;;;;;;22.58;46.02;93967.66;5022634;28;20064;-89
2023/07/07 10:57:39;;;;;;;35.25;16.20;;;;;;;22.55;46.32;93963.19;5006221;28;20057;-92
2023/07/07 11:00:28;;;;;;;35.30;16.67;;;;;;;22.49;46.26;93960.53;5007598;28;20121;-92
2023/07/07 11:03:18;;;;;;;35.28;18.35;;;;;;;22.50;46.27;93961.28;5007067;28;20042;-90
2023/07/07 11:06:12;;;;;;;;;;;;;;;22.50;46.13;93964.78;5020415;28;20189;-91
2023/07/07 11:08:51;;;;;;;32.33;14.18;;;;;;;22.48;46.28;93963.81;5006987;28;19917;-90
2023/07/07 11:11:29;;;;;;;33.95;16.80;;;;;;;22.46;46.12;93961.59;4976049;28;20034;-90
2023/07/07 11:14:12;;;;;;;34.95;16.23;;;;;;;22.47;46.35;93956.81;5026571;28;20030;-90
2023/07/07 11:16:44;;;;;;;34.15;15.95;;;;;;;22.47;46.40;93956.81;5027144;28;20038;-91
2023/07/07 11:19:34;;;;;;;36.72;17.88;;;;;;;22.49;46.49;93959.81;5003425;28;20111;-91
2023/07/07 11:22:23;;;;;;;36.22;17.77;;;;;;;22.48;46.33;93963.81;5059161;28;20060;-91
2023/07/07 11:24:56;;;;;;;36.45;17.38;;;;;;;22.48;46.28;93955.56;5029207;28;20029;-91
2023/07/07 11:27:35;;;;;;;40.10;15.40;;;;;;;22.48;46.15;93956.31;4992767;28;20025;-91
2023/07/07 11:30:12;;;;;;;37.13;17.73;;;;;;;22.48;46.13;93959.06;5037761;28;20038;-91
2023/07/07 11:32:50;;;;;;;33.22;17.13;;;;;;;22.48;46.37;93959.06;5014381;28;20226;-90
2023/07/07 11:35:57;;;;;;;36.17;17.27;;;;;;;22.48;46.25;93955.56;5049434;23;20048;-90
2023/07/07 11:38:46;;;;;;;37.90;15.75;;;;;;;22.48;46.20;93958.31;5038219;23;20049;-91
2023/07/07 11:41:45;;;;;;;29.10;14.52;;;;;;;22.48;46.32;93953.56;5012446;28;20033;-90
2023/07/07 11:44:29;;;;;;;32.25;16.60;;;;;;;22.48;46.50;93945.28;5027687;28;20049;-91